Flight Track Log - Related Links

Times and Time Zones

All times are in EDT time to prevent confusion due to time zone crossing. See the TRS423 flight status page for this flight to view local times or setup timezone preferences in your user account.

Time Position Orientation Groundspeed Altitude Reporting Facility
EDT Latitude Longitude Course Direction KTS MPH feet Rate Location/Type
Mon 02:45:54 PM 28.4333 -81.3000 360° North 177 204 800  Level Orlando TRACON
Mon 02:47:12 PM 28.5167 -81.3000 360° North 232 267 3,200 2,000 Climbing Orlando TRACON
Mon 02:48:12 PM 28.5833 -81.3167 348° North 256 295 5,400 2,200 Climbing Orlando TRACON
Mon 02:49:12 PM 28.6500 -81.3333 348° North 276 318 7,600 1,877 Climbing Orlando TRACON
Mon 02:51:27 PM 28.8336 -81.3544 354° North 299 344 11,500 1,815 Climbing Jacksonville Center
Mon 02:52:27 PM 28.9297 -81.3672 353° North 322 371 13,500 1,983 Climbing Jacksonville Center
Mon 02:53:28 PM 29.0300 -81.3797 354° North 344 396 15,500 1,900 Climbing Jacksonville Center
Mon 02:54:27 PM 29.1325 -81.3950 353° North 356 410 17,300 1,613 Climbing Jacksonville Center
Mon 02:55:27 PM 29.2392 -81.4028 356° North 371 427 18,700 1,450 Climbing Jacksonville Center
Mon 02:56:27 PM 29.3497 -81.4156 354° North 382 440 20,200 1,600 Climbing Jacksonville Center
Mon 02:57:27 PM 29.4647 -81.4281 355° North 401 461 21,900 1,650 Climbing Jacksonville Center
Mon 02:58:27 PM 29.5861 -81.4381 356° North 420 483 23,500 1,850 Climbing Jacksonville Center
Mon 02:59:27 PM 29.7050 -81.4508 355° North 427 491 25,600 1,700 Climbing Jacksonville Center
Mon 03:00:27 PM 29.8242 -81.4608 356° North 427 491 26,900 1,983 Climbing Jacksonville Center
Mon 03:01:28 PM 29.9369 -81.4714 355° North 422 486 29,600 1,636 Climbing Jacksonville Center
Mon 03:02:28 PM 30.0519 -81.4839 355° North 417 480 30,200 700 Climbing Jacksonville Center
Mon 03:03:28 PM 30.1711 -81.4942 356° North 417 480 31,000 1,008 Climbing Jacksonville Center
Mon 03:04:27 PM 30.2925 -81.5044 356° North 425 489 32,200 1,000 Climbing Jacksonville Center
Mon 03:05:28 PM 30.4133 -81.5053 360° North 430 495 33,000 397 Climbing Jacksonville Center
Mon 03:06:28 PM 30.5511 -81.4936 North 436 502 33,000  Level Jacksonville Center
Mon 03:07:28 PM 30.6742 -81.4844 North 436 502 33,000  Level Jacksonville Center
Mon 03:08:28 PM 30.8014 -81.4728 North 442 509 33,000  Level Jacksonville Center
Mon 03:09:28 PM 30.9286 -81.4636 North 447 514 33,000  Level Jacksonville Center
Mon 03:10:28 PM 31.0539 -81.4544 North 447 514 33,000  Level Jacksonville Center
Mon 03:11:28 PM 31.1808 -81.4161 14° North 454 522 33,000  Level Jacksonville Center
Mon 03:12:28 PM 31.2986 -81.3244 34° Northeast 481 554 33,000  Level Jacksonville Center
Mon 03:13:27 PM 31.4019 -81.2375 36° Northeast 504 580 33,000  Level Jacksonville Center
Mon 03:14:28 PM 31.5303 -81.1400 33° Northeast 504 580 33,000  Level Jacksonville Center
Mon 03:15:28 PM 31.6458 -81.0475 34° Northeast 504 580 33,000  Level Jacksonville Center
Mon 03:16:28 PM 31.7511 -80.9650 34° Northeast 499 574 33,000  Level Jacksonville Center
Mon 03:17:28 PM 31.8789 -80.8644 34° Northeast 505 581 33,000  Level Jacksonville Center
Mon 03:18:28 PM 31.9819 -80.7814 34° Northeast 505 581 33,000  Level Jacksonville Center
Mon 03:19:28 PM 32.1097 -80.6778 34° Northeast 500 575 33,000 -50 Level Jacksonville Center
Mon 03:20:28 PM 32.2144 -80.5917 35° Northeast 506 582 32,900  Descending Jacksonville Center
Mon 03:21:27 PM 32.3297 -80.5003 34° Northeast 501 577 33,000 50 Climbing Jacksonville Center
Mon 03:22:28 PM 32.4428 -80.4089 34° Northeast 501 577 33,000  Level Jacksonville Center
Mon 03:23:28 PM 32.5558 -80.3144 35° Northeast 501 577 33,000 -50 Level Jacksonville Center
Mon 03:24:27 PM 32.6706 -80.2200 35° Northeast 501 577 32,900  Descending Jacksonville Center
Mon 03:25:27 PM 32.7978 -80.1147 35° Northeast 507 583 33,000 50 Climbing Jacksonville Center
Mon 03:26:28 PM 32.9125 -80.0197 35° Northeast 507 583 33,000  Level Jacksonville Center
Mon 03:27:28 PM 33.0250 -79.9122 39° Northeast 507 583 33,000 -50 Level Jacksonville Center
Mon 03:28:27 PM 33.1350 -79.8042 39° Northeast 507 583 32,900  Descending Jacksonville Center
Mon 03:29:28 PM 33.2450 -79.6986 39° Northeast 507 583 33,000 50 Climbing Jacksonville Center
Mon 03:30:27 PM 33.3550 -79.5928 39° Northeast 507 583 33,000  Level Jacksonville Center
Mon 03:31:28 PM 33.4628 -79.4842 40° Northeast 507 583 33,000 -50 Level Jacksonville Center
Mon 03:32:28 PM 33.5706 -79.3803 39° Northeast 507 583 32,900  Descending Jacksonville Center
Mon 03:33:28 PM 33.6800 -79.2711 40° Northeast 507 583 33,000  Climbing Jacksonville Center
Mon 03:35:24 PM 33.8728 -79.0808 39° Northeast 509 586 32,900 -34 Descending Washington Center
Mon 03:36:24 PM 33.9781 -78.9750 40° Northeast 504 580 32,900 50 Level Washington Center
Mon 03:37:25 PM 34.0872 -78.8717 38° Northeast 497 572 33,000  Climbing Washington Center
Mon 03:38:26 PM 34.1944 -78.7631 40° Northeast 497 572 32,900 -50 Descending Washington Center
Mon 03:39:24 PM 34.3017 -78.6564 39° Northeast 497 572 32,900 50 Level Washington Center
Mon 03:40:25 PM 34.4086 -78.5497 39° Northeast 497 572 33,000 50 Climbing Washington Center
Mon 03:41:25 PM 34.5156 -78.4403 40° Northeast 497 572 33,000 -50 Level Washington Center
Mon 03:42:26 PM 34.6244 -78.3331 39° Northeast 497 572 32,900  Descending Washington Center
Mon 03:43:24 PM 34.7314 -78.2203 41° Northeast 497 572 33,000 50 Climbing Washington Center
Mon 03:44:25 PM 34.8486 -78.0975 41° Northeast 497 572 33,000  Level Washington Center
Mon 03:45:26 PM 34.9553 -77.9867 40° Northeast 497 572 33,000  Level Washington Center
Mon 03:46:24 PM 35.0639 -77.8758 40° Northeast 497 572 33,000  Level Washington Center
Mon 03:47:25 PM 35.1744 -77.7619 40° Northeast 504 580 33,000  Level Washington Center
Mon 03:48:26 PM 35.2808 -77.6506 41° Northeast 504 580 33,000  Level Washington Center
Mon 03:49:26 PM 35.3933 -77.5386 39° Northeast 509 586 33,000  Level Washington Center
Mon 03:50:24 PM 35.4992 -77.4494 34° Northeast 509 586 33,000  Level Washington Center
Mon 03:51:25 PM 35.6153 -77.3447 36° Northeast 509 586 33,000  Level Washington Center
Mon 03:52:26 PM 35.7275 -77.2450 36° Northeast 509 586 33,000  Level Washington Center
Mon 03:53:24 PM 35.8456 -77.1447 35° Northeast 509 586 33,000  Level Washington Center
Mon 03:54:24 PM 35.9681 -77.0317 37° Northeast 504 580 33,000 -50 Level Washington Center
Mon 03:55:25 PM 36.0839 -76.9311 35° Northeast 509 586 32,900 -496 Descending Washington Center
Mon 03:56:25 PM 36.1978 -76.8275 36° Northeast 509 586 32,000 -893 Descending Washington Center
Mon 03:57:26 PM 36.3133 -76.7261 35° Northeast 509 586 31,100 -958 Descending Washington Center
Mon 03:58:24 PM 36.4292 -76.6219 36° Northeast 509 586 30,100 -1,068 Descending Washington Center
Mon 03:59:24 PM 36.5489 -76.5125 36° Northeast 509 586 29,000 -541 Descending Washington Center
Mon 04:00:26 PM 36.6664 -76.4050 36° Northeast 520 598 29,000  Level Washington Center
Mon 04:01:24 PM 36.7819 -76.3000 36° Northeast 520 598 29,000  Level Washington Center
Mon 04:02:24 PM 36.9036 -76.1919 35° Northeast 520 598 29,000  Level Washington Center
Mon 04:03:24 PM 37.0247 -76.1331 21° North 528 608 29,000  Level Washington Center
Mon 04:04:25 PM 37.1586 -76.0636 22° Northeast 523 602 29,000 -50 Level Washington Center
Mon 04:05:25 PM 37.2964 -75.9914 23° Northeast 517 595 28,900 -50 Descending Washington Center
Mon 04:06:26 PM 37.4322 -75.9161 24° Northeast 517 595 28,900 50 Level Washington Center
Mon 04:07:24 PM 37.5661 -75.8408 24° Northeast 517 595 29,000 -203 Climbing Washington Center
Mon 04:08:24 PM 37.6914 -75.7467 31° Northeast 517 595 28,500 -744 Descending Washington Center
Mon 04:09:25 PM 37.8186 -75.6469 32° Northeast 522 601 27,500 -984 Descending Washington Center
Mon 04:10:26 PM 37.9417 -75.5522 31° Northeast 527 606 26,500 -992 Descending Washington Center
Mon 04:11:26 PM 38.0667 -75.4653 29° Northeast 516 594 25,500 -1,017 Descending Washington Center
Mon 04:12:24 PM 38.1939 -75.3831 27° Northeast 503 579 24,500 -1,729 Descending Washington Center
Mon 04:13:24 PM 38.3167 -75.3006 28° Northeast 493 567 22,100 -2,281 Descending Washington Center
Mon 04:14:25 PM 38.4311 -75.2258 27° Northeast 476 548 19,900 -2,262 Descending Washington Center
Mon 04:15:26 PM 38.5414 -75.1589 25° Northeast 455 524 17,500 -2,380 Descending Washington Center
Mon 04:16:26 PM 38.6411 -75.0947 27° Northeast 425 489 15,100 -1,322 Descending Washington Center
Mon 04:17:24 PM 38.7453 -75.0539 17° North 400 460 14,900 -102 Descending Washington Center
Mon 04:18:24 PM 38.8514 -75.0344 North 379 436 14,900 -450 Level Washington Center
Mon 04:19:24 PM 38.9578 -75.0044 12° North 379 436 14,000 -1,140 Descending Washington Center
Mon 04:20:25 PM 39.0575 -74.9847 North 372 428 12,600 -1,377 Descending Washington Center
Mon 04:21:26 PM 39.1556 -74.9600 11° North 367 422 11,200 -1,140 Descending Washington Center
Mon 04:23:24 PM 39.3333 -74.9167 11° North 281 323 9,200 -763 Descending Philadelphia TRACON
Mon 04:24:19 PM 39.4000 -74.9167 360° North 267 307 9,000 -522 Descending Philadelphia TRACON
Mon 04:25:19 PM 39.4667 -74.9500 339° North 270 311 8,200 -960 Descending Philadelphia TRACON
Mon 04:26:24 PM 39.5500 -74.9833 343° North 261 300 7,000 -700 Descending Philadelphia TRACON
Mon 04:27:19 PM 39.6000 -75.0000 346° North 257 296 6,800 -522 Descending Philadelphia TRACON
Mon 04:28:19 PM 39.6667 -74.9833 11° North 265 305 6,000 -400 Descending Philadelphia TRACON
Mon 04:29:19 PM 39.7500 -74.9500 17° North 264 304 6,000 -150 Level Philadelphia TRACON
Mon 04:30:19 PM 39.8167 -74.9333 11° North 197 227 5,700 -500 Descending Philadelphia TRACON
Mon 04:31:19 PM 39.8500 -74.9000 38° Northeast 205 236 5,000 -667 Descending Philadelphia TRACON
Mon 04:32:25 PM 39.9167 -74.8833 11° North 191 220 4,300 -476 Descending Philadelphia TRACON
Mon 04:33:25 PM 39.9500 -74.9000 339° North 157 181 4,000 -150 Descending Philadelphia TRACON
Mon 04:34:25 PM 39.9333 -74.9667 252° West 160 184 4,000 -316 Level Philadelphia TRACON
Mon 04:35:19 PM 39.9167 -75.0167 247° West 164 189 3,400 -800 Descending Philadelphia TRACON
Mon 04:36:25 PM 39.9000 -75.0833 252° West 168 193 2,400 -909 Descending Philadelphia TRACON
Mon 04:37:31 PM 39.9000 -75.1333 270° West 137 158 1,400 -800 Descending Philadelphia TRACON
Mon 04:38:25 PM 39.8833 -75.1833 247° West 126 145 800 -667 Descending Philadelphia TRACON
Mon 04:40:00 PM 39.8667 -75.2333 253° West  Level FlightAware Approximate
Mon 04:47:00 PM 39.8722 -75.2409 253° West  Level Estimated
Mon 04:48:00 PM 39.8722 -75.2409 253° West  Level Estimated

Login

Don't have an account? Register now (free) for customized features, flight alerts, and more!